sensor_id;sensor_type;location;lat;lon;timestamp;temperature;humidity
46890;DHT22;32625;51.080;16.970;2022-08-01T00:00:46;16.40;99.90
46890;DHT22;32625;51.080;16.970;2022-08-01T00:03:14;16.40;99.90
46890;DHT22;32625;51.080;16.970;2022-08-01T00:05:41;16.40;99.90
46890;DHT22;32625;51.080;16.970;2022-08-01T00:08:10;16.40;99.90
46890;DHT22;32625;51.080;16.970;2022-08-01T00:10:37;16.40;99.90
46890;DHT22;32625;51.080;16.970;2022-08-01T00:13:05;16.40;99.90
46890;DHT22;32625;51.080;16.970;2022-08-01T00:15:32;16.40;99.90
46890;DHT22;32625;51.080;16.970;2022-08-01T00:18:00;16.40;99.90
46890;DHT22;32625;51.080;16.970;2022-08-01T00:20:28;16.40;99.90
46890;DHT22;32625;51.080;16.970;2022-08-01T00:22:55;16.40;99.90
46890;DHT22;32625;51.080;16.970;2022-08-01T00:25:23;16.40;99.90
46890;DHT22;32625;51.080;16.970;2022-08-01T00:28:00;16.50;99.90
46890;DHT22;32625;51.080;16.970;2022-08-01T00:30:30;16.40;99.90
46890;DHT22;32625;51.080;16.970;2022-08-01T00:32:57;16.40;99.90
46890;DHT22;32625;51.080;16.970;2022-08-01T00:35:25;16.40;99.90
46890;DHT22;32625;51.080;16.970;2022-08-01T00:37:52;16.40;99.90
46890;DHT22;32625;51.080;16.970;2022-08-01T00:40:19;16.30;99.90
46890;DHT22;32625;51.080;16.970;2022-08-01T00:42:47;16.30;99.90
46890;DHT22;32625;51.080;16.970;2022-08-01T00:45:14;16.30;99.90
46890;DHT22;32625;51.080;16.970;2022-08-01T00:47:42;16.20;99.90
46890;DHT22;32625;51.080;16.970;2022-08-01T00:50:10;16.30;99.90
46890;DHT22;32625;51.080;16.970;2022-08-01T00:52:39;16.30;99.90
46890;DHT22;32625;51.080;16.970;2022-08-01T00:55:08;16.20;99.90
46890;DHT22;32625;51.080;16.970;2022-08-01T00:57:41;16.20;99.90
46890;DHT22;32625;51.080;16.970;2022-08-01T01:00:28;16.10;99.90
46890;DHT22;32625;51.080;16.970;2022-08-01T01:02:59;16.10;99.90
46890;DHT22;32625;51.080;16.970;2022-08-01T01:05:26;16.10;99.90
46890;DHT22;32625;51.080;16.970;2022-08-01T01:08:00;16.10;99.90
46890;DHT22;32625;51.080;16.970;2022-08-01T01:10:36;16.10;99.90
46890;DHT22;32625;51.080;16.970;2022-08-01T01:13:32;16.00;99.90
46890;DHT22;32625;51.080;16.970;2022-08-01T01:16:18;16.00;99.90
46890;DHT22;32625;51.080;16.970;2022-08-01T01:19:00;16.00;99.90
46890;DHT22;32625;51.080;16.970;2022-08-01T01:24:53;16.00;99.90
46890;DHT22;32625;51.080;16.970;2022-08-01T01:27:45;16.00;99.90
46890;DHT22;32625;51.080;16.970;2022-08-01T01:30:14;16.00;99.90
46890;DHT22;32625;51.080;16.970;2022-08-01T01:32:46;16.00;99.90
46890;DHT22;32625;51.080;16.970;2022-08-01T01:35:27;16.00;99.90
46890;DHT22;32625;51.080;16.970;2022-08-01T01:38:04;16.00;99.90
46890;DHT22;32625;51.080;16.970;2022-08-01T01:40:33;16.00;99.90
46890;DHT22;32625;51.080;16.970;2022-08-01T01:43:01;16.00;99.90
46890;DHT22;32625;51.080;16.970;2022-08-01T01:45:29;16.00;99.90
46890;DHT22;32625;51.080;16.970;2022-08-01T01:48:01;16.00;99.90
46890;DHT22;32625;51.080;16.970;2022-08-01T01:50:29;16.00;99.90
46890;DHT22;32625;51.080;16.970;2022-08-01T01:52:59;16.00;99.90
46890;DHT22;32625;51.080;16.970;2022-08-01T01:55:28;16.00;99.90
46890;DHT22;32625;51.080;16.970;2022-08-01T01:57:56;16.00;99.90
46890;DHT22;32625;51.080;16.970;2022-08-01T02:00:25;16.00;99.90
46890;DHT22;32625;51.080;16.970;2022-08-01T02:02:55;16.00;99.90
46890;DHT22;32625;51.080;16.970;2022-08-01T02:05:24;16.10;99.90
46890;DHT22;32625;51.080;16.970;2022-08-01T02:07:54;16.10;99.90
46890;DHT22;32625;51.080;16.970;2022-08-01T02:10:27;16.10;99.90
46890;DHT22;32625;51.080;16.970;2022-08-01T02:12:57;16.10;99.90
46890;DHT22;32625;51.080;16.970;2022-08-01T02:15:27;16.00;99.90
46890;DHT22;32625;51.080;16.970;2022-08-01T02:17:56;16.10;99.90
46890;DHT22;32625;51.080;16.970;2022-08-01T02:20:28;16.00;99.90
46890;DHT22;32625;51.080;16.970;2022-08-01T02:23:04;16.10;99.90
46890;DHT22;32625;51.080;16.970;2022-08-01T02:25:46;16.00;99.90
46890;DHT22;32625;51.080;16.970;2022-08-01T02:28:43;16.00;99.90
46890;DHT22;32625;51.080;16.970;2022-08-01T02:31:14;16.00;99.90
46890;DHT22;32625;51.080;16.970;2022-08-01T02:33:48;16.00;99.90
46890;DHT22;32625;51.080;16.970;2022-08-01T02:36:19;15.90;99.90
46890;DHT22;32625;51.080;16.970;2022-08-01T02:39:00;15.90;99.90
46890;DHT22;32625;51.080;16.970;2022-08-01T02:41:29;15.90;99.90
46890;DHT22;32625;51.080;16.970;2022-08-01T02:44:00;15.90;99.90
46890;DHT22;32625;51.080;16.970;2022-08-01T02:46:37;15.80;99.90
46890;DHT22;32625;51.080;16.970;2022-08-01T02:49:07;15.80;99.90
46890;DHT22;32625;51.080;16.970;2022-08-01T02:51:36;15.80;99.90
46890;DHT22;32625;51.080;16.970;2022-08-01T02:54:07;15.70;99.90
46890;DHT22;32625;51.080;16.970;2022-08-01T02:56:35;15.70;99.90
46890;DHT22;32625;51.080;16.970;2022-08-01T02:59:10;15.60;99.90
46890;DHT22;32625;51.080;16.970;2022-08-01T03:01:41;15.60;99.90
46890;DHT22;32625;51.080;16.970;2022-08-01T03:04:10;15.60;99.90
46890;DHT22;32625;51.080;16.970;2022-08-01T03:06:39;15.60;99.90
46890;DHT22;32625;51.080;16.970;2022-08-01T03:09:11;15.60;99.90
46890;DHT22;32625;51.080;16.970;2022-08-01T03:11:44;15.60;99.90
46890;DHT22;32625;51.080;16.970;2022-08-01T03:14:13;15.60;99.90
46890;DHT22;32625;51.080;16.970;2022-08-01T03:16:43;15.60;99.90
46890;DHT22;32625;51.080;16.970;2022-08-01T03:19:12;15.60;99.90
46890;DHT22;32625;51.080;16.970;2022-08-01T03:21:43;15.70;99.90
46890;DHT22;32625;51.080;16.970;2022-08-01T03:24:12;15.70;99.90
46890;DHT22;32625;51.080;16.970;2022-08-01T03:26:41;15.70;99.90
46890;DHT22;32625;51.080;16.970;2022-08-01T03:29:16;15.80;99.90
46890;DHT22;32625;51.080;16.970;2022-08-01T03:31:45;15.80;99.90
46890;DHT22;32625;51.080;16.970;2022-08-01T03:34:13;15.80;99.90
46890;DHT22;32625;51.080;16.970;2022-08-01T03:36:55;15.90;99.90
46890;DHT22;32625;51.080;16.970;2022-08-01T03:39:30;15.90;99.90
46890;DHT22;32625;51.080;16.970;2022-08-01T03:42:05;15.90;99.90
46890;DHT22;32625;51.080;16.970;2022-08-01T03:44:35;16.00;99.90
46890;DHT22;32625;51.080;16.970;2022-08-01T03:47:08;16.00;99.90
46890;DHT22;32625;51.080;16.970;2022-08-01T03:49:44;16.10;99.90
46890;DHT22;32625;51.080;16.970;2022-08-01T03:52:12;16.10;99.90
46890;DHT22;32625;51.080;16.970;2022-08-01T03:54:43;16.10;99.90
46890;DHT22;32625;51.080;16.970;2022-08-01T03:57:13;16.20;99.90
46890;DHT22;32625;51.080;16.970;2022-08-01T04:00:03;16.20;99.90
46890;DHT22;32625;51.080;16.970;2022-08-01T04:02:38;16.20;99.90
46890;DHT22;32625;51.080;16.970;2022-08-01T04:05:06;16.20;99.90
46890;DHT22;32625;51.080;16.970;2022-08-01T04:07:34;16.20;99.90
46890;DHT22;32625;51.080;16.970;2022-08-01T04:10:06;16.30;99.90
46890;DHT22;32625;51.080;16.970;2022-08-01T04:12:34;16.30;99.90
46890;DHT22;32625;51.080;16.970;2022-08-01T04:15:02;16.30;99.90
46890;DHT22;32625;51.080;16.970;2022-08-01T04:17:29;16.30;99.90
46890;DHT22;32625;51.080;16.970;2022-08-01T04:19:57;16.30;99.90
46890;DHT22;32625;51.080;16.970;2022-08-01T04:22:24;16.30;99.90
46890;DHT22;32625;51.080;16.970;2022-08-01T04:24:55;16.30;99.90
46890;DHT22;32625;51.080;16.970;2022-08-01T04:27:29;16.30;99.90
46890;DHT22;32625;51.080;16.970;2022-08-01T04:30:22;16.40;99.90
46890;DHT22;32625;51.080;16.970;2022-08-01T04:32:51;16.30;99.90
46890;DHT22;32625;51.080;16.970;2022-08-01T04:35:20;16.40;99.90
46890;DHT22;32625;51.080;16.970;2022-08-01T04:38:08;16.40;99.90
46890;DHT22;32625;51.080;16.970;2022-08-01T04:40:37;16.40;99.90
46890;DHT22;32625;51.080;16.970;2022-08-01T04:43:06;16.40;99.90
46890;DHT22;32625;51.080;16.970;2022-08-01T04:45:34;16.50;99.90
46890;DHT22;32625;51.080;16.970;2022-08-01T04:48:05;16.50;99.90
46890;DHT22;32625;51.080;16.970;2022-08-01T04:50:35;16.50;99.90
46890;DHT22;32625;51.080;16.970;2022-08-01T04:53:03;16.60;99.90
46890;DHT22;32625;51.080;16.970;2022-08-01T04:55:30;16.50;99.90
46890;DHT22;32625;51.080;16.970;2022-08-01T04:57:58;16.60;99.90
46890;DHT22;32625;51.080;16.970;2022-08-01T05:00:26;16.60;99.90
46890;DHT22;32625;51.080;16.970;2022-08-01T05:02:53;16.60;99.90
46890;DHT22;32625;51.080;16.970;2022-08-01T05:05:20;16.70;99.90
46890;DHT22;32625;51.080;16.970;2022-08-01T05:07:48;16.70;99.90
46890;DHT22;32625;51.080;16.970;2022-08-01T05:10:15;16.70;99.90
46890;DHT22;32625;51.080;16.970;2022-08-01T05:12:42;16.80;99.90
46890;DHT22;32625;51.080;16.970;2022-08-01T05:15:09;16.80;99.90
46890;DHT22;32625;51.080;16.970;2022-08-01T05:17:41;16.80;99.90
46890;DHT22;32625;51.080;16.970;2022-08-01T05:20:10;16.90;99.90
46890;DHT22;32625;51.080;16.970;2022-08-01T05:22:38;16.90;99.90
46890;DHT22;32625;51.080;16.970;2022-08-01T05:25:06;16.90;99.90
46890;DHT22;32625;51.080;16.970;2022-08-01T05:27:34;16.90;99.90
46890;DHT22;32625;51.080;16.970;2022-08-01T05:30:08;16.90;99.90
46890;DHT22;32625;51.080;16.970;2022-08-01T05:32:36;17.00;99.90
46890;DHT22;32625;51.080;16.970;2022-08-01T05:35:05;17.00;99.90
46890;DHT22;32625;51.080;16.970;2022-08-01T05:37:33;17.10;99.90
46890;DHT22;32625;51.080;16.970;2022-08-01T05:40:01;17.10;99.90
46890;DHT22;32625;51.080;16.970;2022-08-01T05:42:28;17.10;99.90
46890;DHT22;32625;51.080;16.970;2022-08-01T05:44:56;17.10;99.90
46890;DHT22;32625;51.080;16.970;2022-08-01T05:47:23;17.10;99.90
46890;DHT22;32625;51.080;16.970;2022-08-01T05:49:50;17.10;99.90
46890;DHT22;32625;51.080;16.970;2022-08-01T05:52:17;17.20;99.90
46890;DHT22;32625;51.080;16.970;2022-08-01T05:54:45;17.20;99.90
46890;DHT22;32625;51.080;16.970;2022-08-01T05:57:12;17.20;99.90
46890;DHT22;32625;51.080;16.970;2022-08-01T05:59:41;17.30;99.90
46890;DHT22;32625;51.080;16.970;2022-08-01T06:02:08;17.30;99.90
46890;DHT22;32625;51.080;16.970;2022-08-01T06:04:36;17.40;99.90
46890;DHT22;32625;51.080;16.970;2022-08-01T06:07:03;17.40;99.90
46890;DHT22;32625;51.080;16.970;2022-08-01T06:09:31;17.50;99.90
46890;DHT22;32625;51.080;16.970;2022-08-01T06:11:58;17.50;99.90
46890;DHT22;32625;51.080;16.970;2022-08-01T06:14:25;17.60;99.90
46890;DHT22;32625;51.080;16.970;2022-08-01T06:16:53;17.60;99.90
46890;DHT22;32625;51.080;16.970;2022-08-01T06:19:20;17.70;99.90
46890;DHT22;32625;51.080;16.970;2022-08-01T06:21:47;17.90;99.90
46890;DHT22;32625;51.080;16.970;2022-08-01T06:24:15;17.90;99.90
46890;DHT22;32625;51.080;16.970;2022-08-01T06:26:42;18.20;99.90
46890;DHT22;32625;51.080;16.970;2022-08-01T06:29:10;18.40;99.90
46890;DHT22;32625;51.080;16.970;2022-08-01T06:31:38;18.50;99.90
46890;DHT22;32625;51.080;16.970;2022-08-01T06:34:05;18.60;99.90
46890;DHT22;32625;51.080;16.970;2022-08-01T06:36:32;18.70;99.90
46890;DHT22;32625;51.080;16.970;2022-08-01T06:38:59;18.80;99.90
46890;DHT22;32625;51.080;16.970;2022-08-01T06:41:27;18.90;99.90
46890;DHT22;32625;51.080;16.970;2022-08-01T06:43:54;19.00;99.90
46890;DHT22;32625;51.080;16.970;2022-08-01T06:46:22;19.10;99.90
46890;DHT22;32625;51.080;16.970;2022-08-01T06:48:56;19.20;99.90
46890;DHT22;32625;51.080;16.970;2022-08-01T06:51:23;19.20;99.90
46890;DHT22;32625;51.080;16.970;2022-08-01T06:53:50;19.40;99.90
46890;DHT22;32625;51.080;16.970;2022-08-01T06:56:17;19.60;99.90
46890;DHT22;32625;51.080;16.970;2022-08-01T06:58:45;19.70;99.90
46890;DHT22;32625;51.080;16.970;2022-08-01T07:01:12;19.80;99.90
46890;DHT22;32625;51.080;16.970;2022-08-01T07:03:40;20.00;99.90
46890;DHT22;32625;51.080;16.970;2022-08-01T07:06:22;20.20;99.90
46890;DHT22;32625;51.080;16.970;2022-08-01T07:08:50;20.40;99.90
46890;DHT22;32625;51.080;16.970;2022-08-01T07:11:18;20.60;99.90
46890;DHT22;32625;51.080;16.970;2022-08-01T07:13:46;20.70;99.90
46890;DHT22;32625;51.080;16.970;2022-08-01T07:16:14;20.70;99.90
46890;DHT22;32625;51.080;16.970;2022-08-01T07:18:42;20.80;99.90
46890;DHT22;32625;51.080;16.970;2022-08-01T07:21:09;20.80;99.90
46890;DHT22;32625;51.080;16.970;2022-08-01T07:23:56;21.00;99.90
46890;DHT22;32625;51.080;16.970;2022-08-01T07:26:24;21.00;99.90
46890;DHT22;32625;51.080;16.970;2022-08-01T07:28:53;21.10;99.90
46890;DHT22;32625;51.080;16.970;2022-08-01T07:31:20;21.00;99.90
46890;DHT22;32625;51.080;16.970;2022-08-01T07:33:48;21.10;99.90
46890;DHT22;32625;51.080;16.970;2022-08-01T07:36:17;21.20;99.90
46890;DHT22;32625;51.080;16.970;2022-08-01T07:38:45;21.30;99.90
46890;DHT22;32625;51.080;16.970;2022-08-01T07:41:13;21.40;99.90
46890;DHT22;32625;51.080;16.970;2022-08-01T07:43:40;21.40;99.90
46890;DHT22;32625;51.080;16.970;2022-08-01T07:46:20;21.60;99.90
46890;DHT22;32625;51.080;16.970;2022-08-01T07:48:47;21.60;99.90
46890;DHT22;32625;51.080;16.970;2022-08-01T07:51:15;21.60;99.90
46890;DHT22;32625;51.080;16.970;2022-08-01T07:53:42;21.70;99.90
46890;DHT22;32625;51.080;16.970;2022-08-01T07:56:09;21.60;99.90
46890;DHT22;32625;51.080;16.970;2022-08-01T07:58:37;21.60;99.90
46890;DHT22;32625;51.080;16.970;2022-08-01T08:01:04;21.60;99.90
46890;DHT22;32625;51.080;16.970;2022-08-01T08:03:31;21.60;99.90
46890;DHT22;32625;51.080;16.970;2022-08-01T08:05:59;21.50;99.90
46890;DHT22;32625;51.080;16.970;2022-08-01T08:08:27;21.60;99.90
46890;DHT22;32625;51.080;16.970;2022-08-01T08:10:54;21.60;99.90
46890;DHT22;32625;51.080;16.970;2022-08-01T08:13:21;21.70;99.90
46890;DHT22;32625;51.080;16.970;2022-08-01T08:15:49;21.60;99.90
46890;DHT22;32625;51.080;16.970;2022-08-01T08:18:16;21.70;99.90
46890;DHT22;32625;51.080;16.970;2022-08-01T08:20:44;21.70;99.90
46890;DHT22;32625;51.080;16.970;2022-08-01T08:23:12;21.60;99.90
46890;DHT22;32625;51.080;16.970;2022-08-01T08:26:11;21.60;99.90
46890;DHT22;32625;51.080;16.970;2022-08-01T08:28:39;21.70;99.90
46890;DHT22;32625;51.080;16.970;2022-08-01T08:31:07;21.70;99.90
46890;DHT22;32625;51.080;16.970;2022-08-01T08:33:51;21.50;99.90
46890;DHT22;32625;51.080;16.970;2022-08-01T08:36:19;21.30;99.90
46890;DHT22;32625;51.080;16.970;2022-08-01T08:38:46;21.10;99.90
46890;DHT22;32625;51.080;16.970;2022-08-01T08:41:14;21.10;99.90
46890;DHT22;32625;51.080;16.970;2022-08-01T08:43:47;21.10;99.90
46890;DHT22;32625;51.080;16.970;2022-08-01T08:46:14;21.00;99.90
46890;DHT22;32625;51.080;16.970;2022-08-01T08:48:43;21.00;99.90
46890;DHT22;32625;51.080;16.970;2022-08-01T08:51:11;21.00;99.90
46890;DHT22;32625;51.080;16.970;2022-08-01T08:53:40;21.00;99.90
46890;DHT22;32625;51.080;16.970;2022-08-01T08:56:13;21.00;99.90
46890;DHT22;32625;51.080;16.970;2022-08-01T08:58:44;21.10;99.90
46890;DHT22;32625;51.080;16.970;2022-08-01T09:01:12;21.10;99.90
46890;DHT22;32625;51.080;16.970;2022-08-01T09:03:40;21.10;99.90
46890;DHT22;32625;51.080;16.970;2022-08-01T09:06:08;21.20;99.90
46890;DHT22;32625;51.080;16.970;2022-08-01T09:08:35;21.20;99.90
46890;DHT22;32625;51.080;16.970;2022-08-01T09:11:03;21.20;99.90
46890;DHT22;32625;51.080;16.970;2022-08-01T09:13:31;21.30;99.90
46890;DHT22;32625;51.080;16.970;2022-08-01T09:15:58;21.30;99.90
46890;DHT22;32625;51.080;16.970;2022-08-01T09:18:36;21.50;99.90
46890;DHT22;32625;51.080;16.970;2022-08-01T09:23:35;21.60;99.90
46890;DHT22;32625;51.080;16.970;2022-08-01T09:26:40;21.70;99.90
46890;DHT22;32625;51.080;16.970;2022-08-01T09:29:16;21.80;99.90
46890;DHT22;32625;51.080;16.970;2022-08-01T09:32:05;21.90;99.90
46890;DHT22;32625;51.080;16.970;2022-08-01T09:34:33;22.10;99.90
46890;DHT22;32625;51.080;16.970;2022-08-01T09:37:02;22.40;99.90
46890;DHT22;32625;51.080;16.970;2022-08-01T09:39:37;22.50;99.90
46890;DHT22;32625;51.080;16.970;2022-08-01T09:42:19;22.60;99.90
46890;DHT22;32625;51.080;16.970;2022-08-01T09:44:55;23.00;99.90
46890;DHT22;32625;51.080;16.970;2022-08-01T09:47:39;23.10;99.90
46890;DHT22;32625;51.080;16.970;2022-08-01T09:50:07;23.00;99.90
46890;DHT22;32625;51.080;16.970;2022-08-01T09:52:37;22.90;99.90
46890;DHT22;32625;51.080;16.970;2022-08-01T09:55:07;22.70;99.90
46890;DHT22;32625;51.080;16.970;2022-08-01T09:57:35;23.00;99.90
46890;DHT22;32625;51.080;16.970;2022-08-01T10:00:03;23.00;99.90
46890;DHT22;32625;51.080;16.970;2022-08-01T10:02:40;23.00;99.90
46890;DHT22;32625;51.080;16.970;2022-08-01T10:05:10;23.00;99.90
46890;DHT22;32625;51.080;16.970;2022-08-01T10:07:57;23.10;99.90
46890;DHT22;32625;51.080;16.970;2022-08-01T10:10:25;23.30;99.90
46890;DHT22;32625;51.080;16.970;2022-08-01T10:12:58;23.20;99.90
46890;DHT22;32625;51.080;16.970;2022-08-01T10:15:27;23.40;99.90
46890;DHT22;32625;51.080;16.970;2022-08-01T10:18:06;23.60;99.90
46890;DHT22;32625;51.080;16.970;2022-08-01T10:20:52;23.50;99.90
46890;DHT22;32625;51.080;16.970;2022-08-01T10:23:26;23.50;99.90
46890;DHT22;32625;51.080;16.970;2022-08-01T10:26:08;23.50;99.90
46890;DHT22;32625;51.080;16.970;2022-08-01T10:28:37;23.50;99.90
46890;DHT22;32625;51.080;16.970;2022-08-01T10:31:07;23.30;99.90
46890;DHT22;32625;51.080;16.970;2022-08-01T10:33:40;23.40;99.90
46890;DHT22;32625;51.080;16.970;2022-08-01T10:36:22;23.60;99.90
46890;DHT22;32625;51.080;16.970;2022-08-01T10:38:53;23.60;99.90
46890;DHT22;32625;51.080;16.970;2022-08-01T10:41:21;23.60;99.90
46890;DHT22;32625;51.080;16.970;2022-08-01T10:43:49;23.70;99.90
46890;DHT22;32625;51.080;16.970;2022-08-01T10:46:18;24.10;99.90
46890;DHT22;32625;51.080;16.970;2022-08-01T10:49:01;24.00;99.90
46890;DHT22;32625;51.080;16.970;2022-08-01T10:51:29;23.90;99.90
46890;DHT22;32625;51.080;16.970;2022-08-01T10:54:17;23.90;99.90
46890;DHT22;32625;51.080;16.970;2022-08-01T10:56:46;24.00;99.90
46890;DHT22;32625;51.080;16.970;2022-08-01T10:59:21;24.00;99.90
46890;DHT22;32625;51.080;16.970;2022-08-01T11:02:09;24.00;99.90
46890;DHT22;32625;51.080;16.970;2022-08-01T11:07:18;24.20;99.90
46890;DHT22;32625;51.080;16.970;2022-08-01T11:10:10;24.20;99.90
46890;DHT22;32625;51.080;16.970;2022-08-01T11:12:43;24.20;99.90
46890;DHT22;32625;51.080;16.970;2022-08-01T11:17:44;24.00;99.90
46890;DHT22;32625;51.080;16.970;2022-08-01T11:20:26;24.10;99.90
46890;DHT22;32625;51.080;16.970;2022-08-01T11:28:28;24.10;99.90
46890;DHT22;32625;51.080;16.970;2022-08-01T11:41:40;24.20;99.90
46890;DHT22;32625;51.080;16.970;2022-08-01T11:44:22;24.20;99.90
46890;DHT22;32625;51.080;16.970;2022-08-01T11:47:03;24.20;99.90
46890;DHT22;32625;51.080;16.970;2022-08-01T11:52:24;24.10;99.90
46890;DHT22;32625;51.080;16.970;2022-08-01T11:57:28;24.40;99.30
46890;DHT22;32625;51.080;16.970;2022-08-01T12:00:04;24.50;99.00
46890;DHT22;32625;51.080;16.970;2022-08-01T12:02:40;24.50;98.70
46890;DHT22;32625;51.080;16.970;2022-08-01T12:05:13;24.60;99.80
46890;DHT22;32625;51.080;16.970;2022-08-01T12:07:43;25.00;97.50
46890;DHT22;32625;51.080;16.970;2022-08-01T12:10:14;25.20;96.50
46890;DHT22;32625;51.080;16.970;2022-08-01T12:12:49;25.00;96.80
46890;DHT22;32625;51.080;16.970;2022-08-01T12:15:19;24.90;96.30
46890;DHT22;32625;51.080;16.970;2022-08-01T12:17:57;24.80;97.40
46890;DHT22;32625;51.080;16.970;2022-08-01T12:20:31;24.90;97.00
46890;DHT22;32625;51.080;16.970;2022-08-01T12:23:07;24.90;96.30
46890;DHT22;32625;51.080;16.970;2022-08-01T12:25:35;25.10;96.20
46890;DHT22;32625;51.080;16.970;2022-08-01T12:28:08;24.80;96.70
46890;DHT22;32625;51.080;16.970;2022-08-01T12:30:36;24.80;96.90
46890;DHT22;32625;51.080;16.970;2022-08-01T12:33:05;24.60;97.50
46890;DHT22;32625;51.080;16.970;2022-08-01T12:35:35;24.70;97.50
46890;DHT22;32625;51.080;16.970;2022-08-01T12:38:06;24.80;97.20
46890;DHT22;32625;51.080;16.970;2022-08-01T12:40:36;25.10;95.50
46890;DHT22;32625;51.080;16.970;2022-08-01T12:43:16;25.10;95.30
46890;DHT22;32625;51.080;16.970;2022-08-01T12:45:54;25.00;94.80
46890;DHT22;32625;51.080;16.970;2022-08-01T12:48:24;24.90;95.20
46890;DHT22;32625;51.080;16.970;2022-08-01T12:50:52;24.80;94.90
46890;DHT22;32625;51.080;16.970;2022-08-01T12:53:21;24.70;95.70
46890;DHT22;32625;51.080;16.970;2022-08-01T12:55:54;24.50;96.50
46890;DHT22;32625;51.080;16.970;2022-08-01T12:58:33;24.60;96.70
46890;DHT22;32625;51.080;16.970;2022-08-01T13:01:09;24.50;97.30
46890;DHT22;32625;51.080;16.970;2022-08-01T13:03:37;24.40;97.60
46890;DHT22;32625;51.080;16.970;2022-08-01T13:06:12;24.60;97.60
46890;DHT22;32625;51.080;16.970;2022-08-01T13:08:43;24.60;97.80
46890;DHT22;32625;51.080;16.970;2022-08-01T13:11:14;24.70;97.20
46890;DHT22;32625;51.080;16.970;2022-08-01T13:13:48;24.70;97.30
46890;DHT22;32625;51.080;16.970;2022-08-01T13:16:18;25.00;97.30
46890;DHT22;32625;51.080;16.970;2022-08-01T13:19:06;25.50;95.90
46890;DHT22;32625;51.080;16.970;2022-08-01T13:21:34;25.80;94.50
46890;DHT22;32625;51.080;16.970;2022-08-01T13:24:27;25.70;95.00
46890;DHT22;32625;51.080;16.970;2022-08-01T13:27:00;25.60;95.20
46890;DHT22;32625;51.080;16.970;2022-08-01T13:29:36;25.30;95.30
46890;DHT22;32625;51.080;16.970;2022-08-01T13:32:16;25.20;95.00
46890;DHT22;32625;51.080;16.970;2022-08-01T13:35:03;25.20;95.00
46890;DHT22;32625;51.080;16.970;2022-08-01T13:37:31;25.30;95.30
46890;DHT22;32625;51.080;16.970;2022-08-01T13:39:58;25.30;95.20
46890;DHT22;32625;51.080;16.970;2022-08-01T13:42:26;25.30;94.80
46890;DHT22;32625;51.080;16.970;2022-08-01T13:44:53;25.40;95.20
46890;DHT22;32625;51.080;16.970;2022-08-01T13:47:20;25.40;93.90
46890;DHT22;32625;51.080;16.970;2022-08-01T13:49:59;25.30;93.40
46890;DHT22;32625;51.080;16.970;2022-08-01T13:52:30;25.30;93.30
46890;DHT22;32625;51.080;16.970;2022-08-01T13:54:58;25.30;93.00
46890;DHT22;32625;51.080;16.970;2022-08-01T13:57:26;25.50;91.90
46890;DHT22;32625;51.080;16.970;2022-08-01T14:00:07;25.70;91.40
46890;DHT22;32625;51.080;16.970;2022-08-01T14:02:38;25.90;91.80
46890;DHT22;32625;51.080;16.970;2022-08-01T14:05:06;26.00;90.90
46890;DHT22;32625;51.080;16.970;2022-08-01T14:07:33;26.10;90.90
46890;DHT22;32625;51.080;16.970;2022-08-01T14:10:04;26.10;91.00
46890;DHT22;32625;51.080;16.970;2022-08-01T14:12:49;25.90;91.00
46890;DHT22;32625;51.080;16.970;2022-08-01T14:15:17;25.80;91.60
46890;DHT22;32625;51.080;16.970;2022-08-01T14:18:07;25.80;91.70
46890;DHT22;32625;51.080;16.970;2022-08-01T14:20:38;25.70;92.40
46890;DHT22;32625;51.080;16.970;2022-08-01T14:23:05;25.70;91.80
46890;DHT22;32625;51.080;16.970;2022-08-01T14:25:39;25.60;91.70
46890;DHT22;32625;51.080;16.970;2022-08-01T14:28:27;25.60;92.40
46890;DHT22;32625;51.080;16.970;2022-08-01T14:30:57;25.60;92.60
46890;DHT22;32625;51.080;16.970;2022-08-01T14:33:25;25.70;93.00
46890;DHT22;32625;51.080;16.970;2022-08-01T14:35:53;25.70;93.50
46890;DHT22;32625;51.080;16.970;2022-08-01T14:38:32;25.70;93.30
46890;DHT22;32625;51.080;16.970;2022-08-01T14:41:00;25.60;93.60
46890;DHT22;32625;51.080;16.970;2022-08-01T14:43:30;25.50;93.80
46890;DHT22;32625;51.080;16.970;2022-08-01T14:46:03;25.40;94.30
46890;DHT22;32625;51.080;16.970;2022-08-01T14:48:31;25.30;94.80
46890;DHT22;32625;51.080;16.970;2022-08-01T14:50:59;25.20;93.70
46890;DHT22;32625;51.080;16.970;2022-08-01T14:53:30;25.20;94.90
46890;DHT22;32625;51.080;16.970;2022-08-01T14:56:05;25.20;95.50
46890;DHT22;32625;51.080;16.970;2022-08-01T14:58:33;25.30;93.50
46890;DHT22;32625;51.080;16.970;2022-08-01T15:01:00;25.40;93.60
46890;DHT22;32625;51.080;16.970;2022-08-01T15:03:28;25.40;93.40
46890;DHT22;32625;51.080;16.970;2022-08-01T15:05:55;25.30;93.60
46890;DHT22;32625;51.080;16.970;2022-08-01T15:08:22;25.30;93.10
46890;DHT22;32625;51.080;16.970;2022-08-01T15:10:50;25.20;93.60
46890;DHT22;32625;51.080;16.970;2022-08-01T15:13:18;25.30;92.80
46890;DHT22;32625;51.080;16.970;2022-08-01T15:15:45;25.20;92.90
46890;DHT22;32625;51.080;16.970;2022-08-01T15:18:12;25.20;93.00
46890;DHT22;32625;51.080;16.970;2022-08-01T15:20:40;25.30;93.40
46890;DHT22;32625;51.080;16.970;2022-08-01T15:23:07;25.40;92.40
46890;DHT22;32625;51.080;16.970;2022-08-01T15:25:35;25.50;91.90
46890;DHT22;32625;51.080;16.970;2022-08-01T15:28:11;25.40;92.70
46890;DHT22;32625;51.080;16.970;2022-08-01T15:30:39;25.30;93.00
46890;DHT22;32625;51.080;16.970;2022-08-01T15:33:06;25.20;93.30
46890;DHT22;32625;51.080;16.970;2022-08-01T15:35:34;25.10;93.80
46890;DHT22;32625;51.080;16.970;2022-08-01T15:38:01;25.10;94.60
46890;DHT22;32625;51.080;16.970;2022-08-01T15:40:29;25.00;95.30
46890;DHT22;32625;51.080;16.970;2022-08-01T15:43:00;24.80;96.10
46890;DHT22;32625;51.080;16.970;2022-08-01T15:45:27;24.80;96.60
46890;DHT22;32625;51.080;16.970;2022-08-01T15:48:16;24.60;97.00
46890;DHT22;32625;51.080;16.970;2022-08-01T15:50:44;24.30;98.40
46890;DHT22;32625;51.080;16.970;2022-08-01T15:53:11;24.10;99.00
46890;DHT22;32625;51.080;16.970;2022-08-01T15:55:39;23.90;99.10
46890;DHT22;32625;51.080;16.970;2022-08-01T15:58:07;23.90;99.50
46890;DHT22;32625;51.080;16.970;2022-08-01T16:00:37;23.80;99.70
46890;DHT22;32625;51.080;16.970;2022-08-01T16:03:08;23.70;99.90
46890;DHT22;32625;51.080;16.970;2022-08-01T16:05:36;23.70;99.90
46890;DHT22;32625;51.080;16.970;2022-08-01T16:08:11;23.60;99.90
46890;DHT22;32625;51.080;16.970;2022-08-01T16:10:38;23.60;99.90
46890;DHT22;32625;51.080;16.970;2022-08-01T16:13:06;23.60;99.90